RAIN

Not for real navigation. The accuracy of this data is not assured See disclaimer for more information



ICAO NAME COUNTRY WIND Kt GUST Kt VIS m TEMP/DEW C BARO METAR
LTAJ Gaziantep Turkey 14 0 200 7/7 30.09 LTAJ 190650Z 11014KT 0200 R28/0250N R10/0200N -RA FG VV001 07/07 Q1019 NOSIG
KSAT SAN ANTONIO INTERNATIONAL AIR TX United States 5 0 200 14/14 29.94 KSAT 190651Z 11005KT 0.125SM R13R/2600V5000FT -RA FG VV002 14/14 A2994 RMK AO2 RAB43 SLP124 P0000 T0
UCFO 2 0 350 3/3 30.15 UCFO 190630Z 01002KT 330V050 0350 0300N R12/0500N RA FG BKN002 OVC033 03/03 Q1021 R12/29//50 TEMPO 0
KMNZ 9 0 400 12/12 29.94 KMNZ 190655Z AUTO 16009KT 0.25SM -RA OVC002 12/12 A2994 RMK AO2 T01150115
KBOK Brookings, Brookings Airport OR United States 4 0 400 12/12 30.31 KBOK 190656Z AUTO 16004KT 0.25SM -RA FG OVC002 12/12 A3031 RMK AO2 RAB51 SLP281 P0000 T01170117

Show more